Time;durP1;ratioP1;P1;durP2;ratioP2;P2;SDS_P1;SDS_P2;PMS_P1;PMS_P2;Temp;Humidity;BMP_temperature;BMP_pressure;BME280_temperature;BME280_humidity;BME280_pressure;Samples;Min_cycle;Max_cycle;Signal;HPM_P1;HPM_P2
2021/06/24 00:00:58;;;;;;;9.50;3.60;;;13.50;68.90;;;;;;4940645;29;20035;-79
2021/06/24 00:03:25;;;;;;;6.82;3.50;;;13.50;68.30;;;;;;4943537;29;20032;-79
2021/06/24 00:05:52;;;;;;;8.13;4.25;;;13.50;69.70;;;;;;4943928;29;20039;-79
2021/06/24 00:08:18;;;;;;;8.75;4.47;;;13.50;70.80;;;;;;4943771;29;20024;-79
2021/06/24 00:10:44;;;;;;;10.32;4.68;;;13.50;70.90;;;;;;4943720;29;20027;-79
2021/06/24 00:13:11;;;;;;;9.27;3.90;;;13.40;70.90;;;;;;4943779;29;20031;-79
2021/06/24 00:15:38;;;;;;;11.32;5.15;;;13.40;71.90;;;;;;4942480;29;20032;-79
2021/06/24 00:18:04;;;;;;;9.18;4.20;;;13.40;71.00;;;;;;4943107;29;20102;-79
2021/06/24 00:20:30;;;;;;;10.52;4.10;;;13.30;71.80;;;;;;4943746;29;20032;-79
2021/06/24 00:22:56;;;;;;;9.82;4.32;;;13.30;71.00;;;;;;4943606;29;20387;-79
2021/06/24 00:25:22;;;;;;;7.47;3.90;;;13.30;71.10;;;;;;4941369;29;20083;-79
2021/06/24 00:27:48;;;;;;;8.52;4.50;;;13.30;70.20;;;;;;4939018;29;20024;-79
2021/06/24 00:30:14;;;;;;;8.55;4.57;;;13.30;70.70;;;;;;4942442;29;20082;-80
2021/06/24 00:32:40;;;;;;;9.98;4.80;;;13.30;71.10;;;;;;4943241;29;20019;-79
2021/06/24 00:35:07;;;;;;;10.43;4.50;;;13.30;71.50;;;;;;4935791;29;20028;-79
2021/06/24 00:37:35;;;;;;;9.13;5.35;;;13.20;70.80;;;;;;4940931;29;20071;-80
2021/06/24 00:40:03;;;;;;;11.60;5.35;;;13.20;72.80;;;;;;4933333;29;20084;-79
2021/06/24 00:42:29;;;;;;;13.70;5.18;;;13.00;74.20;;;;;;4943064;29;20019;-78
2021/06/24 00:44:57;;;;;;;11.15;5.57;;;12.90;74.20;;;;;;4930199;29;20040;-79
2021/06/24 00:47:23;;;;;;;10.95;6.38;;;12.90;73.50;;;;;;4942971;29;20032;-79
2021/06/24 00:49:49;;;;;;;15.20;6.50;;;12.80;75.30;;;;;;4941716;29;20028;-80
2021/06/24 00:52:16;;;;;;;10.00;5.32;;;12.80;73.60;;;;;;4941810;29;20038;-79
2021/06/24 00:54:42;;;;;;;10.13;5.68;;;12.90;72.60;;;;;;4936518;29;20035;-79
2021/06/24 00:57:08;;;;;;;13.75;5.25;;;12.80;75.40;;;;;;4943040;29;20596;-79
2021/06/24 00:59:38;;;;;;;9.93;5.20;;;12.80;72.60;;;;;;4942821;29;20506;-79
2021/06/24 01:02:07;;;;;;;9.82;5.47;;;12.90;71.50;;;;;;4941277;29;20047;-78
2021/06/24 01:04:33;;;;;;;12.35;6.25;;;12.80;73.90;;;;;;4942870;29;20023;-78
2021/06/24 01:07:00;;;;;;;14.02;5.38;;;12.90;71.90;;;;;;4942997;29;20031;-78
2021/06/24 01:09:26;;;;;;;10.23;5.18;;;12.90;73.20;;;;;;4942698;29;20028;-79
2021/06/24 01:11:54;;;;;;;9.20;5.32;;;12.80;72.40;;;;;;4941486;29;20091;-79
2021/06/24 01:14:20;;;;;;;15.05;6.82;;;12.90;70.80;;;;;;4940862;29;20028;-78
2021/06/24 01:16:47;;;;;;;8.93;5.20;;;12.90;70.20;;;;;;4942568;29;20024;-78
2021/06/24 01:19:16;;;;;;;9.70;5.03;;;12.90;70.20;;;;;;4942399;29;20082;-78
2021/06/24 01:21:43;;;;;;;10.00;5.53;;;12.90;71.00;;;;;;4941189;29;20372;-78
2021/06/24 01:24:09;;;;;;;12.82;5.47;;;12.90;71.50;;;;;;4941140;29;20106;-78
2021/06/24 01:26:37;;;;;;;10.60;5.20;;;12.90;70.60;;;;;;4932923;29;20114;-78
2021/06/24 01:29:04;;;;;;;10.95;5.60;;;12.80;69.90;;;;;;4941168;29;20067;-78
2021/06/24 01:31:30;;;;;;;12.70;5.70;;;12.80;70.20;;;;;;4942327;29;20038;-79
2021/06/24 01:33:56;;;;;;;9.75;5.43;;;12.70;69.20;;;;;;4935511;29;20031;-78
2021/06/24 01:36:22;;;;;;;7.25;5.20;;;12.70;69.30;;;;;;4939095;29;20023;-79
2021/06/24 01:38:48;;;;;;;8.30;4.97;;;12.80;68.60;;;;;;4941232;29;20144;-79
2021/06/24 01:41:15;;;;;;;8.32;5.75;;;12.70;68.20;;;;;;4942103;29;20043;-79
2021/06/24 01:43:45;;;;;;;12.10;5.55;;;12.70;71.50;;;;;;4933455;29;20391;-79
2021/06/24 01:46:12;;;;;;;11.30;6.00;;;12.60;72.50;;;;;;4937640;29;20028;-79
2021/06/24 01:48:39;;;;;;;9.50;5.38;;;12.60;72.50;;;;;;4940707;29;20024;-78
2021/06/24 01:51:06;;;;;;;11.75;5.78;;;12.60;71.20;;;;;;4941880;29;20028;-78
2021/06/24 01:53:31;;;;;;;10.65;6.15;;;12.60;72.80;;;;;;4941917;29;20016;-78
2021/06/24 01:55:58;;;;;;;15.15;6.68;;;12.40;75.10;;;;;;4941688;29;20558;-79
2021/06/24 01:58:26;;;;;;;10.95;5.97;;;12.60;72.20;;;;;;4941798;29;20118;-79
2021/06/24 02:00:55;;;;;;;10.10;5.85;;;12.70;70.20;;;;;;4941693;29;20028;-79
2021/06/24 02:03:21;;;;;;;9.35;5.20;;;12.60;69.90;;;;;;4941579;29;20020;-79
2021/06/24 02:05:50;;;;;;;11.30;5.53;;;12.60;69.30;;;;;;4941611;29;20063;-75
2021/06/24 02:08:21;;;;;;;12.35;5.45;;;12.60;69.10;;;;;;4940452;29;20024;-79
2021/06/24 02:10:48;;;;;;;9.60;5.88;;;12.60;68.60;;;;;;4941369;29;20032;-79
2021/06/24 02:13:14;;;;;;;9.45;5.57;;;12.60;68.30;;;;;;4940772;29;20031;-79
2021/06/24 02:15:41;;;;;;;9.07;5.15;;;12.60;68.10;;;;;;4941569;29;20028;-79
2021/06/24 02:18:07;;;;;;;10.65;5.65;;;12.60;68.80;;;;;;4941274;29;20458;-79
2021/06/24 02:20:33;;;;;;;9.57;4.80;;;12.60;68.20;;;;;;4928864;29;20036;-80
2021/06/24 02:22:59;;;;;;;12.40;6.13;;;12.60;68.30;;;;;;4940104;29;20416;-80
2021/06/24 02:25:26;;;;;;;10.48;5.70;;;12.60;69.90;;;;;;4938766;29;20411;-79
2021/06/24 02:27:53;;;;;;;10.27;5.55;;;12.60;69.70;;;;;;4935202;29;20020;-79
2021/06/24 02:30:19;;;;;;;11.65;5.32;;;12.50;70.40;;;;;;4941347;29;20407;-80
2021/06/24 02:32:45;;;;;;;11.70;5.82;;;12.50;69.00;;;;;;4941122;29;20059;-80
2021/06/24 02:35:13;;;;;;;8.95;5.25;;;12.40;69.30;;;;;;4930447;29;20055;-80
2021/06/24 02:37:40;;;;;;;11.38;5.88;;;12.40;68.90;;;;;;4939304;29;20432;-79
2021/06/24 02:40:07;;;;;;;13.98;6.30;;;12.40;69.50;;;;;;4941075;29;20063;-79
2021/06/24 02:42:34;;;;;;;11.85;6.90;;;12.30;71.80;;;;;;4930413;29;20047;-79
2021/06/24 02:45:00;;;;;;;14.55;6.80;;;12.20;72.50;;;;;;4928064;29;20051;-79
2021/06/24 02:47:25;;;;;;;11.80;6.78;;;12.20;72.80;;;;;;4939333;29;20072;-79
2021/06/24 02:49:51;;;;;;;13.25;7.18;;;12.10;73.70;;;;;;4941147;29;20035;-80
2021/06/24 02:52:17;;;;;;;16.08;8.10;;;12.10;73.70;;;;;;4939490;29;20028;-79
2021/06/24 02:54:43;;;;;;;15.88;8.07;;;11.90;75.90;;;;;;4939602;29;20032;-79
2021/06/24 02:57:09;;;;;;;9.30;6.45;;;11.90;75.50;;;;;;4940719;29;20027;-79
2021/06/24 02:59:35;;;;;;;17.63;7.57;;;11.80;75.50;;;;;;4940702;29;20091;-79
2021/06/24 03:02:00;;;;;;;15.95;7.38;;;11.70;77.20;;;;;;4940417;29;20023;-79
2021/06/24 03:04:26;;;;;;;10.82;6.60;;;11.70;75.60;;;;;;4939661;29;20079;-79
2021/06/24 03:06:53;;;;;;;11.98;6.75;;;11.90;73.90;;;;;;4940456;29;20023;-80
2021/06/24 03:09:19;;;;;;;13.32;6.60;;;11.80;73.10;;;;;;4940732;29;20028;-80
2021/06/24 03:11:46;;;;;;;13.80;6.57;;;11.80;72.60;;;;;;4940544;29;20058;-80
2021/06/24 03:14:12;;;;;;;10.70;6.13;;;11.80;74.50;;;;;;4940678;29;20074;-80
2021/06/24 03:16:38;;;;;;;12.15;6.43;;;11.80;76.10;;;;;;4940220;29;20024;-79
2021/06/24 03:19:05;;;;;;;13.40;6.72;;;11.80;75.80;;;;;;4940234;29;20535;-80
2021/06/24 03:21:31;;;;;;;13.93;7.65;;;11.80;74.30;;;;;;4939142;29;20051;-80
2021/06/24 03:23:56;;;;;;;11.52;7.53;;;11.80;72.80;;;;;;4940363;29;20387;-80
2021/06/24 03:26:22;;;;;;;12.93;7.70;;;11.80;74.40;;;;;;4930002;29;20024;-80
2021/06/24 03:28:48;;;;;;;17.10;6.95;;;11.80;73.00;;;;;;4940219;29;20024;-80
2021/06/24 03:31:15;;;;;;;10.77;6.70;;;11.80;73.40;;;;;;4940339;29;20490;-80
2021/06/24 03:33:40;;;;;;;17.60;7.78;;;11.80;74.70;;;;;;4935251;29;20048;-80
2021/06/24 03:36:07;;;;;;;12.40;7.60;;;11.70;74.30;;;;;;4934762;29;20431;-80
2021/06/24 03:38:33;;;;;;;11.93;7.15;;;11.70;73.90;;;;;;4938069;29;20106;-80
2021/06/24 03:40:59;;;;;;;11.15;6.90;;;11.70;72.60;;;;;;4939906;29;20921;-80
2021/06/24 03:43:25;;;;;;;15.95;7.85;;;11.70;72.60;;;;;;4933468;29;20084;-80
2021/06/24 03:45:51;;;;;;;13.65;8.48;;;11.80;73.30;;;;;;4934269;29;20044;-80
2021/06/24 03:48:17;;;;;;;14.77;7.53;;;11.80;73.40;;;;;;4938838;29;20398;-80
2021/06/24 03:50:42;;;;;;;12.65;6.82;;;11.80;73.60;;;;;;4940146;29;20020;-80
2021/06/24 03:53:09;;;;;;;15.23;7.88;;;11.70;73.30;;;;;;4939039;29;20038;-80
2021/06/24 03:55:36;;;;;;;11.65;6.72;;;11.70;72.90;;;;;;4938790;29;20028;-80
2021/06/24 03:58:04;;;;;;;11.43;7.45;;;11.70;71.80;;;;;;4940067;29;20091;-80
2021/06/24 04:00:30;;;;;;;18.23;6.60;;;11.70;71.40;;;;;;4935134;29;20044;-79
2021/06/24 04:02:56;;;;;;;12.38;6.47;;;11.70;71.00;;;;;;4939806;29;20038;-79
2021/06/24 04:05:21;;;;;;;8.80;5.25;;;11.70;70.40;;;;;;4940082;29;20455;-79
2021/06/24 04:07:47;;;;;;;10.73;5.63;;;11.70;70.00;;;;;;4939977;29;20083;-79
2021/06/24 04:10:13;;;;;;;9.60;6.22;;;11.70;69.50;;;;;;4939723;29;20059;-80
2021/06/24 04:12:39;;;;;;;9.77;5.75;;;11.80;69.80;;;;;;4940097;29;20028;-80
2021/06/24 04:15:06;;;;;;;7.85;5.63;;;11.80;68.80;;;;;;4939795;29;20060;-80
2021/06/24 04:17:32;;;;;;;9.27;5.45;;;11.90;68.50;;;;;;4939576;29;20131;-80
2021/06/24 04:19:58;;;;;;;9.80;5.85;;;11.90;68.20;;;;;;4939751;29;20515;-80
2021/06/24 04:22:24;;;;;;;10.25;6.05;;;11.90;68.00;;;;;;4939912;29;20380;-79
2021/06/24 04:24:50;;;;;;;12.95;5.53;;;11.90;67.80;;;;;;4939741;29;20023;-79
2021/06/24 04:27:16;;;;;;;11.90;5.40;;;12.00;67.80;;;;;;4909601;29;20435;-80
2021/06/24 04:29:42;;;;;;;8.52;5.88;;;12.00;67.70;;;;;;4936225;29;20028;-80
2021/06/24 04:32:08;;;;;;;11.68;5.95;;;12.00;67.70;;;;;;4939587;29;20079;-80
2021/06/24 04:34:34;;;;;;;7.30;5.53;;;12.10;67.80;;;;;;4930804;29;20039;-79
2021/06/24 04:37:00;;;;;;;7.75;5.65;;;12.10;67.70;;;;;;4939691;29;20036;-79
2021/06/24 04:39:26;;;;;;;8.95;5.38;;;12.10;67.80;;;;;;4938342;29;20036;-80
2021/06/24 04:41:51;;;;;;;11.23;5.63;;;12.10;67.90;;;;;;4939843;29;20051;-80
2021/06/24 04:44:20;;;;;;;10.90;6.82;;;12.10;69.30;;;;;;4926682;29;20052;-79
2021/06/24 04:46:46;;;;;;;11.73;7.25;;;12.10;70.40;;;;;;4939416;29;20024;-80
2021/06/24 04:49:12;;;;;;;13.45;8.80;;;12.20;69.80;;;;;;4942088;29;20031;-80
2021/06/24 04:51:38;;;;;;;15.05;7.90;;;12.20;69.90;;;;;;4943346;29;20028;-79
2021/06/24 04:54:04;;;;;;;19.17;11.13;;;12.20;70.20;;;;;;4942922;29;20031;-79
2021/06/24 04:56:30;;;;;;;24.30;11.25;;;12.30;72.20;;;;;;4943056;29;20035;-79
2021/06/24 04:58:56;;;;;;;27.17;12.32;;;12.30;71.40;;;;;;4941595;29;20035;-79
2021/06/24 05:01:22;;;;;;;25.92;13.55;;;12.40;71.50;;;;;;4942780;29;20111;-80
2021/06/24 05:03:47;;;;;;;26.08;13.75;;;12.50;71.90;;;;;;4942912;29;20034;-79
2021/06/24 05:06:15;;;;;;;31.40;15.63;;;12.50;71.60;;;;;;4941570;29;20039;-80
2021/06/24 05:08:41;;;;;;;30.05;17.08;;;12.60;72.50;;;;;;4942562;29;20035;-80
2021/06/24 05:11:07;;;;;;;31.52;17.30;;;12.60;72.10;;;;;;4943054;29;20435;-80
2021/06/24 05:13:33;;;;;;;30.42;17.10;;;12.70;72.50;;;;;;4942743;29;20491;-78
2021/06/24 05:15:59;;;;;;;33.88;17.73;;;12.70;73.30;;;;;;4942897;29;20036;-74
2021/06/24 05:18:25;;;;;;;34.22;18.20;;;12.80;73.10;;;;;;4941841;29;20024;-76
2021/06/24 05:20:52;;;;;;;34.58;19.20;;;12.80;73.10;;;;;;4942564;29;20082;-77
2021/06/24 05:23:18;;;;;;;34.58;19.13;;;12.90;73.10;;;;;;4942358;29;20571;-76
2021/06/24 05:25:45;;;;;;;34.20;18.75;;;13.00;73.00;;;;;;4937405;29;20103;-77
2021/06/24 05:28:12;;;;;;;34.38;17.88;;;13.00;72.90;;;;;;4929063;29;20391;-79
2021/06/24 05:30:38;;;;;;;35.45;18.98;;;13.10;73.30;;;;;;4942590;29;20031;-80
2021/06/24 05:33:05;;;;;;;33.88;17.98;;;13.10;73.50;;;;;;4941880;29;20055;-80
2021/06/24 05:35:31;;;;;;;38.63;18.92;;;13.20;73.20;;;;;;4933470;29;20111;-77
2021/06/24 05:37:57;;;;;;;40.92;21.70;;;13.20;73.80;;;;;;4939356;29;20024;-78
2021/06/24 05:40:23;;;;;;;37.95;19.23;;;13.30;73.70;;;;;;4942188;29;20031;-84
2021/06/24 05:42:50;;;;;;;37.00;20.45;;;13.30;73.50;;;;;;4939256;29;20047;-78
2021/06/24 05:45:16;;;;;;;41.08;20.10;;;13.40;73.70;;;;;;4941787;29;20062;-77
2021/06/24 05:47:41;;;;;;;36.15;20.63;;;13.40;74.00;;;;;;4941697;29;20020;-75
2021/06/24 05:50:08;;;;;;;37.22;21.55;;;13.40;74.60;;;;;;4942116;29;20030;-83
2021/06/24 05:52:36;;;;;;;39.15;21.58;;;13.50;74.30;;;;;;4941853;29;20079;-81
2021/06/24 05:55:03;;;;;;;40.83;23.35;;;13.50;75.90;;;;;;4941729;29;20094;-83
2021/06/24 05:57:29;;;;;;;37.65;21.65;;;13.50;75.10;;;;;;4941726;29;20090;-82
2021/06/24 05:59:55;;;;;;;40.55;21.95;;;13.60;74.60;;;;;;4941222;29;20060;-80
2021/06/24 06:02:21;;;;;;;33.35;20.98;;;13.60;74.50;;;;;;4940377;29;20442;-82
2021/06/24 06:04:47;;;;;;;37.33;22.50;;;13.70;74.40;;;;;;4940153;29;20032;-82
2021/06/24 06:07:12;;;;;;;39.72;23.80;;;13.70;74.70;;;;;;4939855;29;20056;-81
2021/06/24 06:09:38;;;;;;;40.85;22.88;;;13.70;74.70;;;;;;4940716;29;20042;-82
2021/06/24 06:12:05;;;;;;;40.03;23.08;;;13.70;74.90;;;;;;4940938;29;20035;-81
2021/06/24 06:14:31;;;;;;;37.78;21.15;;;13.80;75.50;;;;;;4941299;29;20035;-81
2021/06/24 06:16:58;;;;;;;41.00;22.30;;;13.80;76.10;;;;;;4940977;29;20058;-81
2021/06/24 06:19:24;;;;;;;46.28;24.48;;;13.90;76.10;;;;;;4941513;29;20036;-81
2021/06/24 06:21:50;;;;;;;37.60;22.00;;;13.90;75.80;;;;;;4941419;29;20027;-81
2021/06/24 06:24:15;;;;;;;47.38;24.65;;;14.00;75.40;;;;;;4940078;29;20028;-81
2021/06/24 06:26:41;;;;;;;42.03;23.00;;;14.00;76.10;;;;;;4932265;29;20024;-81
2021/06/24 06:29:07;;;;;;;39.95;22.58;;;14.00;75.70;;;;;;4941286;29;20024;-81
2021/06/24 06:31:36;;;;;;;41.47;25.15;;;14.10;76.10;;;;;;4941048;29;20535;-81
2021/06/24 06:34:02;;;;;;;41.13;23.17;;;14.10;76.60;;;;;;4933602;29;20107;-81
2021/06/24 06:36:28;;;;;;;40.10;22.35;;;14.10;76.30;;;;;;4938760;29;20046;-80
2021/06/24 06:38:54;;;;;;;38.63;22.40;;;14.20;76.00;;;;;;4938807;29;20067;-80
2021/06/24 06:41:20;;;;;;;39.58;23.73;;;14.20;76.20;;;;;;4948828;29;20051;-80
2021/06/24 06:43:46;;;;;;;40.92;24.75;;;14.30;76.20;;;;;;4930125;29;20059;-79
2021/06/24 06:46:12;;;;;;;41.00;23.75;;;14.40;77.50;;;;;;4929466;29;20024;-80
2021/06/24 06:48:38;;;;;;;41.38;25.02;;;14.50;77.00;;;;;;4940962;29;20395;-80
2021/06/24 06:51:04;;;;;;;41.90;26.05;;;14.50;76.70;;;;;;4937655;29;20020;-81
2021/06/24 06:53:30;;;;;;;45.45;25.90;;;14.60;76.90;;;;;;4938825;29;20159;-81
2021/06/24 06:55:56;;;;;;;39.72;24.23;;;14.70;77.00;;;;;;4937407;29;20048;-83
2021/06/24 06:58:22;;;;;;;41.85;24.60;;;14.80;77.50;;;;;;4933350;29;20475;-84
2021/06/24 07:00:47;;;;;;;36.40;22.73;;;14.90;77.60;;;;;;4924101;29;20411;-83
2021/06/24 07:03:14;;;;;;;35.35;22.73;;;15.00;78.70;;;;;;4921651;29;20024;-84
2021/06/24 07:05:40;;;;;;;38.40;22.00;;;15.20;78.60;;;;;;4925393;29;20042;-84
2021/06/24 07:08:06;;;;;;;36.90;22.83;;;15.20;77.80;;;;;;4939530;29;20040;-84
2021/06/24 07:10:32;;;;;;;40.38;24.38;;;15.30;77.40;;;;;;4939486;29;20140;-84
2021/06/24 07:12:58;;;;;;;42.17;24.98;;;15.30;77.40;;;;;;4940463;29;20107;-85
2021/06/24 07:15:24;;;;;;;38.95;24.73;;;15.40;77.50;;;;;;4939221;29;20107;-85
2021/06/24 07:17:50;;;;;;;41.53;25.13;;;15.40;77.60;;;;;;4940138;29;20038;-85
2021/06/24 07:20:16;;;;;;;42.00;24.33;;;15.40;77.30;;;;;;4923118;29;20035;-83
2021/06/24 07:22:42;;;;;;;42.95;25.75;;;15.50;77.20;;;;;;4921307;29;20052;-80
2021/06/24 07:25:10;;;;;;;55.60;34.65;;;15.50;77.20;;;;;;4925163;29;20034;-82
2021/06/24 07:27:37;;;;;;;54.80;35.28;;;15.50;77.10;;;;;;4927744;29;20466;-81
2021/06/24 07:30:05;;;;;;;42.35;27.10;;;15.60;77.50;;;;;;4933699;29;20059;-81
2021/06/24 07:32:30;;;;;;;38.58;24.92;;;15.70;78.20;;;;;;4939786;29;20083;-81
2021/06/24 07:34:56;;;;;;;40.40;25.15;;;15.80;77.90;;;;;;4925074;29;20024;-83
2021/06/24 07:37:22;;;;;;;44.35;25.52;;;16.10;78.40;;;;;;4921505;29;20103;-83
2021/06/24 07:39:49;;;;;;;38.88;23.58;;;16.20;78.00;;;;;;4939572;29;20040;-83
2021/06/24 07:42:16;;;;;;;46.05;25.60;;;16.40;77.80;;;;;;4938831;29;20031;-80
2021/06/24 07:44:42;;;;;;;38.38;23.73;;;16.60;77.80;;;;;;4926333;29;20048;-80
2021/06/24 07:47:08;;;;;;;41.70;25.15;;;16.70;77.50;;;;;;4939642;29;20027;-80
2021/06/24 07:49:33;;;;;;;37.83;23.50;;;17.00;77.70;;;;;;4939992;29;20115;-80
2021/06/24 07:51:59;;;;;;;35.30;24.50;;;17.30;78.70;;;;;;4940319;29;20028;-80
2021/06/24 07:54:25;;;;;;;37.63;24.15;;;17.60;78.20;;;;;;4939770;29;20037;-80
2021/06/24 07:56:55;;;;;;;37.22;21.75;;;17.70;78.10;;;;;;4938787;29;20035;-80
2021/06/24 07:59:21;;;;;;;29.45;20.48;;;17.80;75.70;;;;;;4939698;29;20518;-80
2021/06/24 08:01:47;;;;;;;29.48;21.02;;;17.80;74.10;;;;;;4939993;29;20020;-79
2021/06/24 08:04:13;;;;;;;31.40;20.75;;;17.70;74.50;;;;;;4939789;29;20100;-80
2021/06/24 08:06:39;;;;;;;30.23;21.83;;;17.70;74.60;;;;;;4939893;29;20020;-79
2021/06/24 08:09:10;;;;;;;27.73;20.58;;;17.70;75.20;;;;;;4939718;29;20031;-79
2021/06/24 08:11:36;;;;;;;28.42;20.73;;;17.80;75.00;;;;;;4939992;29;20496;-80
2021/06/24 08:14:02;;;;;;;34.08;23.30;;;18.00;75.40;;;;;;4939914;29;20110;-80
2021/06/24 08:16:29;;;;;;;31.17;22.33;;;18.30;76.40;;;;;;4939858;29;20027;-80
2021/06/24 08:18:54;;;;;;;30.25;20.00;;;18.80;78.20;;;;;;4939616;29;20049;-80
2021/06/24 08:21:20;;;;;;;24.83;18.75;;;19.40;76.60;;;;;;4939951;29;20032;-79
2021/06/24 08:23:46;;;;;;;25.58;18.38;;;20.10;77.10;;;;;;4931278;29;20024;-80
2021/06/24 08:26:12;;;;;;;24.42;17.30;;;20.80;71.20;;;;;;4933768;29;20079;-79
2021/06/24 08:28:38;;;;;;;25.42;18.63;;;21.20;74.70;;;;;;4940732;29;20035;-79
2021/06/24 08:31:05;;;;;;;21.27;15.57;;;21.80;72.00;;;;;;4936100;29;20027;-80
2021/06/24 08:33:30;;;;;;;20.55;16.08;;;22.20;72.20;;;;;;4938359;29;20129;-79
2021/06/24 08:35:56;;;;;;;18.10;16.02;;;22.60;70.40;;;;;;4934975;29;20062;-80
2021/06/24 08:38:22;;;;;;;19.65;15.93;;;22.70;69.00;;;;;;4933795;29;20097;-80
2021/06/24 08:40:48;;;;;;;21.77;15.73;;;22.80;68.80;;;;;;4935282;29;20032;-80
2021/06/24 08:43:14;;;;;;;18.67;15.30;;;22.60;67.30;;;;;;4947520;29;20581;-79
2021/06/24 08:45:41;;;;;;;20.38;14.93;;;22.50;64.30;;;;;;4941159;29;20403;-83
2021/06/24 08:48:18;;;;;;;16.60;14.20;;;22.70;69.00;;;;;;4941753;29;20466;-77
2021/06/24 08:50:46;;;;;;;20.45;14.57;;;23.10;69.30;;;;;;4936361;29;20063;-78
2021/06/24 08:53:13;;;;;;;16.90;14.02;;;23.60;63.80;;;;;;4941629;29;20070;-77
2021/06/24 08:55:43;;;;;;;18.85;14.07;;;24.00;62.10;;;;;;4939666;29;20479;-79
2021/06/24 08:58:09;;;;;;;15.75;13.27;;;24.40;64.30;;;;;;4928850;29;20133;-79
2021/06/24 09:00:35;;;;;;;18.40;15.05;;;24.80;63.70;;;;;;4940679;29;20024;-81
2021/06/24 09:03:20;;;;;;;15.73;14.13;;;25.30;65.60;;;;;;4940453;29;20025;-80
2021/06/24 09:06:01;;;;;;;17.20;15.07;;;25.70;62.40;;;;;;4941010;29;20050;-83
2021/06/24 09:08:46;;;;;;;17.50;13.18;;;25.80;60.70;;;;;;4940461;29;20034;-76
2021/06/24 09:11:24;;;;;;;18.48;16.25;;;25.70;62.70;;;;;;4941393;29;20059;-76
2021/06/24 09:14:05;;;;;;;25.73;21.08;;;25.90;59.10;;;;;;4938930;29;20023;-75
2021/06/24 09:16:36;;;;;;;16.08;13.18;;;26.30;61.10;;;;;;4931705;29;20083;-78
2021/06/24 09:19:19;;;;;;;14.60;13.00;;;26.60;62.20;;;;;;4940279;29;20032;-78
2021/06/24 09:21:59;;;;;;;19.13;12.70;;;26.70;61.60;;;;;;4937447;29;20058;-75
2021/06/24 09:24:36;;;;;;;14.48;12.48;;;26.50;61.40;;;;;;4937681;29;20518;-76
2021/06/24 09:27:05;;;;;;;52.17;46.65;;;26.10;59.70;;;;;;4940921;29;20472;-77
2021/06/24 09:29:33;;;;;;;17.77;13.98;;;25.90;60.70;;;;;;4940884;29;20028;-77
2021/06/24 09:31:59;;;;;;;15.07;12.88;;;26.20;57.90;;;;;;4938636;29;20115;-76
2021/06/24 09:34:26;;;;;;;17.23;11.95;;;26.60;57.70;;;;;;4929583;29;20116;-76
2021/06/24 09:36:56;;;;;;;14.48;11.95;;;26.60;58.50;;;;;;4934161;29;20450;-75
2021/06/24 09:39:37;;;;;;;15.40;12.00;;;26.60;57.60;;;;;;4939923;29;20050;-76
2021/06/24 09:42:06;;;;;;;16.83;12.50;;;26.50;60.10;;;;;;4935401;29;20059;-74
2021/06/24 09:44:33;;;;;;;16.98;12.40;;;27.00;59.00;;;;;;4938039;29;20317;-78
2021/06/24 09:47:00;;;;;;;17.38;13.20;;;27.60;57.90;;;;;;4933915;29;20568;-77
2021/06/24 09:49:32;;;;;;;12.32;11.00;;;28.10;53.90;;;;;;4939911;29;20023;-78
2021/06/24 09:51:59;;;;;;;;;;;28.70;57.40;;;;;;4933284;29;20111;-75
2021/06/24 09:54:54;;;;;;;15.95;12.25;;;29.10;53.00;;;;;;4930114;29;19997;-72
2021/06/24 09:57:24;;;;;;;15.45;12.63;;;29.10;55.80;;;;;;4932604;29;20028;-72
2021/06/24 09:59:50;;;;;;;14.52;11.65;;;29.20;56.90;;;;;;4935002;29;20027;-74
2021/06/24 10:02:22;;;;;;;13.65;11.27;;;29.60;57.50;;;;;;4940831;29;20404;-72
2021/06/24 10:04:49;;;;;;;12.93;11.63;;;30.00;52.20;;;;;;4941368;29;20031;-74
2021/06/24 10:07:21;;;;;;;15.07;11.82;;;30.30;55.60;;;;;;4940014;29;20058;-74
2021/06/24 10:09:47;;;;;;;12.93;11.52;;;30.50;55.50;;;;;;4941011;29;20039;-74
2021/06/24 10:12:22;;;;;;;24.45;21.95;;;30.80;55.40;;;;;;4940600;29;20031;-74
2021/06/24 10:14:58;;;;;;;14.43;12.45;;;31.20;52.20;;;;;;4939958;29;20111;-75
2021/06/24 10:17:24;;;;;;;12.55;10.68;;;31.60;53.30;;;;;;4933680;29;20038;-77
2021/06/24 10:19:52;;;;;;;12.45;10.25;;;32.10;52.00;;;;;;4936215;29;20016;-77
2021/06/24 10:22:22;;;;;;;12.43;11.13;;;32.50;52.30;;;;;;4937496;29;20083;-74
2021/06/24 10:24:54;;;;;;;13.10;10.50;;;32.80;51.60;;;;;;4935595;29;20030;-75
2021/06/24 10:27:22;;;;;;;12.80;11.00;;;32.70;46.80;;;;;;4933142;29;20031;-75
2021/06/24 10:29:53;;;;;;;14.52;11.57;;;32.10;48.80;;;;;;4929479;29;20534;-74
2021/06/24 10:32:24;;;;;;;11.87;10.30;;;31.40;47.90;;;;;;4933753;29;20042;-74
2021/06/24 10:34:52;;;;;;;13.82;10.23;;;31.30;50.00;;;;;;4929296;29;20027;-76
2021/06/24 10:37:22;;;;;;;15.88;11.48;;;31.50;51.30;;;;;;4926452;29;20036;-79
2021/06/24 10:39:50;;;;;;;14.75;10.52;;;32.10;52.50;;;;;;4936753;29;20083;-76
2021/06/24 10:42:16;;;;;;;12.07;10.60;;;32.60;49.90;;;;;;4938103;29;20036;-76
2021/06/24 10:44:42;;;;;;;12.15;9.60;;;33.10;50.60;;;;;;4937093;29;20483;-78
2021/06/24 10:47:08;;;;;;;11.98;10.00;;;33.50;46.40;;;;;;4940545;29;20060;-78
2021/06/24 10:49:34;;;;;;;11.88;9.18;;;33.90;49.60;;;;;;4940768;29;20023;-78
2021/06/24 10:52:35;;;;;;;13.80;9.40;;;34.10;48.50;;;;;;4939767;29;20027;-77
2021/06/24 10:55:01;;;;;;;12.75;9.98;;;34.50;48.60;;;;;;4916892;29;20046;-77
2021/06/24 10:57:37;;;;;;;12.18;9.70;;;34.60;47.00;;;;;;4939525;29;20023;-77
2021/06/24 11:00:34;;;;;;;11.38;8.80;;;34.90;48.60;;;;;;4937399;29;20387;-77
2021/06/24 11:03:02;;;;;;;11.90;10.68;;;34.70;43.00;;;;;;4940406;29;20514;-78
2021/06/24 11:05:34;;;;;;;12.13;9.07;;;34.30;44.20;;;;;;4939357;29;20024;-78
2021/06/24 11:08:09;;;;;;;12.45;10.00;;;33.90;46.20;;;;;;4940472;29;20019;-78
2021/06/24 11:10:56;;;;;;;11.68;10.32;;;33.80;46.00;;;;;;4939177;29;20147;-78
2021/06/24 11:13:41;;;;;;;10.45;9.35;;;33.40;46.10;;;;;;4934912;29;20152;-76
2021/06/24 11:16:08;;;;;;;10.73;9.18;;;32.70;44.70;;;;;;4938882;29;20043;-74
2021/06/24 11:18:33;;;;;;;12.00;10.18;;;32.00;45.60;;;;;;4939529;29;20059;-75
2021/06/24 11:21:01;;;;;;;13.98;10.65;;;31.50;46.00;;;;;;4940397;29;20028;-75
2021/06/24 11:23:35;;;;;;;12.77;10.73;;;31.00;46.80;;;;;;4938927;29;20028;-78
2021/06/24 11:26:14;;;;;;;11.52;9.60;;;30.80;45.80;;;;;;4933143;29;20028;-77
2021/06/24 11:28:49;;;;;;;13.75;8.98;;;31.10;48.30;;;;;;4937242;29;20550;-75
2021/06/24 11:31:18;;;;;;;12.18;9.77;;;31.60;43.70;;;;;;4934041;29;20033;-74
2021/06/24 11:34:23;;;;;;;12.35;10.57;;;32.00;46.90;;;;;;4937631;29;20027;-75
2021/06/24 11:36:54;;;;;;;19.00;15.37;;;32.50;45.80;;;;;;4935151;29;20039;-75
2021/06/24 11:39:29;;;;;;;14.93;12.10;;;32.50;45.20;;;;;;4932470;29;20534;-76
2021/06/24 11:41:57;;;;;;;10.77;9.60;;;32.00;44.80;;;;;;4930172;29;20031;-75
2021/06/24 11:44:28;;;;;;;12.65;10.38;;;31.40;44.40;;;;;;4928890;29;20059;-75
2021/06/24 11:46:59;;;;;;;12.50;10.43;;;30.80;45.20;;;;;;4936421;29;20081;-76
2021/06/24 12:00:21;;;;;;;11.27;10.03;;;30.20;45.60;;;;;;4935986;29;20062;-76
2021/06/24 12:01:16;;;;;;;12.32;9.93;;;29.80;45.90;;;;;;4935597;29;20186;-76
2021/06/24 12:03:38;;;;;;;12.40;9.85;;;29.50;46.10;;;;;;4937407;29;20035;-76
2021/06/24 12:06:03;;;;;;;10.85;9.68;;;29.20;46.30;;;;;;4942484;29;20368;-76
2021/06/24 12:08:29;;;;;;;11.60;9.02;;;29.00;48.80;;;;;;4936414;29;20107;-76
2021/06/24 12:11:12;;;;;;;12.70;9.85;;;29.00;45.40;;;;;;4944015;29;20395;-76
2021/06/24 12:13:40;;;;;;;12.23;9.52;;;28.80;47.80;;;;;;4945511;29;20119;-75
2021/06/24 12:16:10;;;;;;;10.68;9.30;;;28.80;47.30;;;;;;4945023;29;20055;-75
2021/06/24 12:18:43;;;;;;;11.45;9.52;;;28.60;47.80;;;;;;4942686;29;20114;-75
2021/06/24 12:21:16;;;;;;;11.73;9.32;;;28.60;48.60;;;;;;4945529;29;20111;-76
2021/06/24 12:23:51;;;;;;;13.70;9.40;;;28.50;49.50;;;;;;4944098;29;20038;-77
2021/06/24 12:26:20;;;;;;;13.10;8.57;;;28.50;48.60;;;;;;4935412;29;20118;-76
2021/06/24 12:28:46;;;;;;;11.02;9.18;;;28.40;48.80;;;;;;4938880;29;20032;-76
2021/06/24 12:31:19;;;;;;;13.30;9.43;;;28.30;47.30;;;;;;4936829;29;20031;-77
2021/06/24 12:33:47;;;;;;;13.07;9.30;;;28.10;47.90;;;;;;4938826;29;20076;-76
2021/06/24 12:36:13;;;;;;;10.57;8.48;;;28.00;47.00;;;;;;4941404;29;20364;-77
2021/06/24 12:38:43;;;;;;;11.85;9.13;;;27.90;44.00;;;;;;4941103;29;20055;-76
2021/06/24 12:41:14;;;;;;;12.23;8.90;;;27.70;46.70;;;;;;4946004;29;20035;-77
2021/06/24 12:43:40;;;;;;;12.32;9.27;;;27.60;45.90;;;;;;4935597;29;20063;-76
2021/06/24 12:46:07;;;;;;;10.68;8.93;;;27.40;44.80;;;;;;4941233;29;20028;-75